createdAt,value
2022-11-19T00:04:59.111Z,2.14
2022-11-19T00:10:02.052Z,2.12
2022-11-19T00:15:09.231Z,2.12
2022-11-19T00:20:14.448Z,2.11
2022-11-19T00:25:17.403Z,2.13
2022-11-19T00:30:46.366Z,2.14
2022-11-19T00:35:43.682Z,2.12
2022-11-19T00:40:46.649Z,2.10
2022-11-19T00:45:50.433Z,2.07
2022-11-19T00:50:53.426Z,2.05
2022-11-19T00:56:00.219Z,2.04
2022-11-19T01:01:04.305Z,2.04
2022-11-19T01:06:08.953Z,2.04
2022-11-19T01:11:14.850Z,2.08
2022-11-19T01:16:22.070Z,2.08
2022-11-19T01:21:27.696Z,2.07
2022-11-19T01:26:31.143Z,2.08
2022-11-19T01:31:34.143Z,2.06
2022-11-19T01:36:37.091Z,2.05
2022-11-19T01:41:40.004Z,2.03
2022-11-19T01:46:43.020Z,2.03
2022-11-19T01:51:55.941Z,2.02
2022-11-19T01:57:06.332Z,2.01
2022-11-19T02:02:09.683Z,2.00
2022-11-19T02:07:13.729Z,1.96
2022-11-19T02:12:27.593Z,1.94
2022-11-19T02:17:36.219Z,1.94
2022-11-19T02:23:21.442Z,1.91
2022-11-19T02:28:30.473Z,1.88
2022-11-19T02:33:45.250Z,1.88
2022-11-19T02:39:07.023Z,1.84
2022-11-19T02:44:48.735Z,1.83
2022-11-19T02:49:57.073Z,1.79
2022-11-19T02:55:04.407Z,1.78
2022-11-19T03:00:27.792Z,1.77
2022-11-19T03:05:34.182Z,1.78
2022-11-19T03:11:06.272Z,1.79
2022-11-19T03:16:36.908Z,1.78
2022-11-19T03:21:50.557Z,1.76
2022-11-19T03:27:16.813Z,1.77
2022-11-19T03:32:22.298Z,1.78
2022-11-19T03:37:28.589Z,1.78
2022-11-19T03:42:31.755Z,1.78
2022-11-19T03:47:38.297Z,1.76
2022-11-19T03:52:43.294Z,1.74
2022-11-19T03:57:46.357Z,1.75
2022-11-19T04:02:49.302Z,1.72
2022-11-19T04:07:52.315Z,1.73
2022-11-19T04:12:55.220Z,1.78
2022-11-19T04:17:58.151Z,1.83
2022-11-19T04:23:01.103Z,1.88
2022-11-19T04:28:04.282Z,1.84
2022-11-19T04:33:07.271Z,1.88
2022-11-19T04:38:10.174Z,1.92
2022-11-19T04:43:13.209Z,1.87
2022-11-19T04:48:16.203Z,1.78
2022-11-19T04:53:19.129Z,1.70
2022-11-19T04:58:22.143Z,1.69
2022-11-19T05:03:25.167Z,1.71
2022-11-19T05:08:28.289Z,1.68
2022-11-19T05:13:31.291Z,1.72
2022-11-19T05:18:34.214Z,1.76
2022-11-19T05:23:37.255Z,1.71
2022-11-19T05:28:40.398Z,1.68
2022-11-19T05:33:43.512Z,1.79
2022-11-19T05:38:46.534Z,1.86
2022-11-19T05:43:49.460Z,1.85
2022-11-19T05:48:52.410Z,1.85
2022-11-19T05:53:55.396Z,1.75
2022-11-19T05:58:58.346Z,1.77
2022-11-19T06:04:01.361Z,1.76
2022-11-19T06:09:04.767Z,1.79
2022-11-19T06:14:08.234Z,1.78
2022-11-19T06:19:11.646Z,1.78
2022-11-19T06:24:14.755Z,1.78
2022-11-19T06:29:18.959Z,1.80
2022-11-19T06:34:22.200Z,1.81
2022-11-19T06:39:25.144Z,1.81
2022-11-19T06:44:28.156Z,1.86
2022-11-19T06:49:31.065Z,1.84
2022-11-19T06:54:35.781Z,1.82
2022-11-19T06:59:40.687Z,1.82
2022-11-19T07:04:43.615Z,1.83
2022-11-19T07:09:46.515Z,1.85
2022-11-19T07:14:49.537Z,1.85
2022-11-19T07:19:55.943Z,1.82
2022-11-19T07:24:58.951Z,1.82
2022-11-19T07:30:03.113Z,1.80
2022-11-19T07:35:06.780Z,1.79
2022-11-19T07:40:11.266Z,1.78
2022-11-19T07:45:14.215Z,1.78
2022-11-19T07:50:17.870Z,1.77
2022-11-19T07:55:20.897Z,1.76
2022-11-19T08:00:24.596Z,1.74
2022-11-19T08:05:27.546Z,1.73
2022-11-19T08:10:31.966Z,1.75
2022-11-19T08:15:35.059Z,1.78
2022-11-19T08:20:45.616Z,1.81
2022-11-19T08:25:48.608Z,1.82
2022-11-19T08:30:51.588Z,1.83
2022-11-19T08:35:56.002Z,1.81
2022-11-19T08:41:17.461Z,1.82
2022-11-19T08:46:20.647Z,1.83
2022-11-19T08:51:23.882Z,1.85
2022-11-19T08:56:26.977Z,1.87
2022-11-19T09:01:30.244Z,1.90
2022-11-19T09:06:36.124Z,1.93
2022-11-19T09:11:42.638Z,1.96
2022-11-19T09:16:46.014Z,1.98
2022-11-19T09:21:49.534Z,1.98
2022-11-19T09:26:53.785Z,2.02
2022-11-19T09:31:57.866Z,2.07
2022-11-19T09:37:01.420Z,2.08
2022-11-19T09:42:22.763Z,2.10
2022-11-19T09:47:40.131Z,2.12
2022-11-19T09:52:47.920Z,2.11
2022-11-19T09:57:54.859Z,2.15
2022-11-19T10:03:01.307Z,2.16
2022-11-19T10:08:31.589Z,2.17
2022-11-19T10:14:07.743Z,2.18
2022-11-19T10:19:38.130Z,2.24
2022-11-19T10:24:47.744Z,2.21
2022-11-19T10:29:56.667Z,2.19
2022-11-19T10:35:09.180Z,2.22
2022-11-19T10:40:19.830Z,2.31
2022-11-19T10:45:28.739Z,2.36
2022-11-19T10:50:31.780Z,2.42
2022-11-19T10:55:41.100Z,2.48
2022-11-19T11:00:44.566Z,2.51
2022-11-19T11:06:03.605Z,2.66
2022-11-19T11:11:06.666Z,2.73
2022-11-19T11:16:17.079Z,2.72
2022-11-19T11:21:36.800Z,2.69
2022-11-19T11:26:40.736Z,2.60
2022-11-19T11:31:47.307Z,2.54
2022-11-19T11:36:50.586Z,2.54
2022-11-19T11:42:05.323Z,2.55
2022-11-19T11:47:18.777Z,2.55
2022-11-19T11:52:28.645Z,2.53
2022-11-19T11:57:50.449Z,2.50
2022-11-19T12:03:04.195Z,2.52
2022-11-19T12:08:14.239Z,2.58
2022-11-19T12:13:30.633Z,2.57
2022-11-19T12:19:02.196Z,2.51
2022-11-19T12:24:17.308Z,2.40
2022-11-19T12:29:50.667Z,2.41
2022-11-19T12:35:01.505Z,2.49
2022-11-19T12:40:16.812Z,2.54
2022-11-19T12:45:39.858Z,2.58
2022-11-19T12:50:55.607Z,2.56
2022-11-19T12:56:19.743Z,2.55
2022-11-19T13:01:28.442Z,2.57
2022-11-19T13:06:41.180Z,2.61
2022-11-19T13:11:53.673Z,2.64
2022-11-19T13:16:59.036Z,2.67
2022-11-19T13:22:16.284Z,2.60
2022-11-19T13:27:23.829Z,2.56
2022-11-19T13:32:31.488Z,2.60
2022-11-19T13:38:11.507Z,2.56
2022-11-19T13:43:40.791Z,2.46
2022-11-19T13:48:58.160Z,2.43
2022-11-19T13:54:04.351Z,2.46
2022-11-19T13:59:09.161Z,2.49
2022-11-19T14:04:40.049Z,2.49
2022-11-19T14:10:22.220Z,2.48
2022-11-19T14:16:05.265Z,2.43
2022-11-19T14:21:45.187Z,2.39
2022-11-19T14:27:01.818Z,2.47
2022-11-19T14:32:07.059Z,2.53
2022-11-19T14:37:25.179Z,2.46
2022-11-19T14:42:28.390Z,2.44
2022-11-19T14:47:38.914Z,2.37
2022-11-19T14:53:01.173Z,2.31
2022-11-19T14:58:24.803Z,2.32
2022-11-19T15:03:28.673Z,2.42
2022-11-19T15:08:48.818Z,2.31
2022-11-19T15:14:28.482Z,2.22
2022-11-19T15:19:45.842Z,2.24
2022-11-19T15:25:05.712Z,2.19
2022-11-19T15:30:20.852Z,2.24
2022-11-19T15:35:54.584Z,2.18
2022-11-19T15:41:01.271Z,2.15
2022-11-19T15:46:10.917Z,2.14
2022-11-19T15:51:16.605Z,2.17
2022-11-19T15:56:19.626Z,2.15
2022-11-19T16:01:23.414Z,2.04
2022-11-19T16:06:31.796Z,2.01
2022-11-19T16:11:56.973Z,2.02
2022-11-19T16:17:33.389Z,2.06
2022-11-19T16:22:46.202Z,2.01
2022-11-19T16:27:49.240Z,1.97
2022-11-19T16:32:55.961Z,1.92
2022-11-19T16:38:01.702Z,1.82
2022-11-19T16:43:05.367Z,1.71
2022-11-19T16:48:47.039Z,1.60
2022-11-19T16:53:58.475Z,1.49
2022-11-19T16:59:04.562Z,1.42
2022-11-19T17:04:10.544Z,1.40
2022-11-19T17:09:29.267Z,1.38
2022-11-19T17:14:34.852Z,1.32
2022-11-19T17:19:37.788Z,1.33
2022-11-19T17:24:43.670Z,1.44
2022-11-19T17:29:46.663Z,1.43
2022-11-19T17:34:50.347Z,1.39
2022-11-19T17:39:53.291Z,1.35
2022-11-19T17:44:56.201Z,1.34
2022-11-19T17:49:59.088Z,1.35
2022-11-19T17:55:14.125Z,1.35
2022-11-19T18:00:17.408Z,1.32
2022-11-19T18:05:23.396Z,1.30
2022-11-19T18:10:26.504Z,1.27
2022-11-19T18:15:30.781Z,1.24
2022-11-19T18:20:34.038Z,1.23
2022-11-19T18:25:37.089Z,1.20
2022-11-19T18:30:40.217Z,1.28
2022-11-19T18:35:43.254Z,1.39
2022-11-19T18:40:49.465Z,1.33
2022-11-19T18:45:52.425Z,1.23
2022-11-19T18:50:55.447Z,1.14
2022-11-19T18:55:58.550Z,1.03
2022-11-19T19:01:06.456Z,0.95
2022-11-19T19:06:10.087Z,0.86
2022-11-19T19:11:31.839Z,0.81
2022-11-19T19:16:35.185Z,0.79
2022-11-19T19:21:38.388Z,0.74
2022-11-19T19:26:41.884Z,0.70
2022-11-19T19:31:44.883Z,0.69
2022-11-19T19:36:52.945Z,0.68
2022-11-19T19:41:56.503Z,0.75
2022-11-19T19:46:59.683Z,0.90
2022-11-19T19:52:02.896Z,0.98
2022-11-19T19:57:07.999Z,0.93
2022-11-19T20:02:11.280Z,0.89
2022-11-19T20:07:14.871Z,0.82
2022-11-19T20:12:17.980Z,0.71
2022-11-19T20:17:21.379Z,0.65
2022-11-19T20:22:24.455Z,0.56
2022-11-19T20:27:27.632Z,0.49
2022-11-19T20:32:30.779Z,0.42
2022-11-19T20:37:33.996Z,0.38
2022-11-19T20:42:55.828Z,0.33
2022-11-19T20:47:58.884Z,0.29
2022-11-19T20:53:02.202Z,0.28
2022-11-19T20:58:06.087Z,0.22
2022-11-19T21:03:10.224Z,0.16
2022-11-19T21:08:14.060Z,0.11
2022-11-19T21:13:17.122Z,0.07
2022-11-19T21:18:24.057Z,0.03
2022-11-19T21:23:28.503Z,-0.04
2022-11-19T21:28:32.248Z,-0.10
2022-11-19T21:33:35.482Z,-0.19
2022-11-19T21:38:39.578Z,-0.25
2022-11-19T21:43:42.604Z,-0.27
2022-11-19T21:48:45.537Z,-0.29
2022-11-19T21:53:48.938Z,-0.23
2022-11-19T21:58:52.049Z,-0.21
2022-11-19T22:03:54.989Z,-0.25
2022-11-19T22:08:57.963Z,-0.25
2022-11-19T22:14:07.057Z,-0.28
2022-11-19T22:19:13.979Z,-0.31
2022-11-19T22:24:17.009Z,-0.32
2022-11-19T22:29:20.410Z,-0.35
2022-11-19T22:34:23.604Z,-0.35
2022-11-19T22:39:26.617Z,-0.34
2022-11-19T22:44:29.553Z,-0.34
2022-11-19T22:49:33.240Z,-0.35
2022-11-19T22:54:41.192Z,-0.38
2022-11-19T22:59:44.811Z,-0.37
2022-11-19T23:04:47.749Z,-0.44
2022-11-19T23:09:50.692Z,-0.50
2022-11-19T23:14:53.697Z,-0.56
2022-11-19T23:19:59.177Z,-0.60
2022-11-19T23:25:06.685Z,-0.62
2022-11-19T23:30:10.049Z,-0.66
2022-11-19T23:35:12.999Z,-0.68
2022-11-19T23:40:16.303Z,-0.69
2022-11-19T23:45:19.264Z,-0.70
2022-11-19T23:50:22.256Z,-0.74
2022-11-19T23:55:25.259Z,-0.73
